Time;durP1;ratioP1;P1;durP2;ratioP2;P2;SDS_P1;SDS_P2;PMS_P1;PMS_P2;Temp;Humidity;BMP_temperature;BMP_pressure;BME280_temperature;BME280_humidity;BME280_pressure;Samples;Min_cycle;Max_cycle;Signal;HPM_P1;HPM_P2
2024/02/25 00:00:32;;;;;;;;;;;;;;;;;;6348374;28;19930;-77
2024/02/25 00:03:32;;;;;;;;;;;;;;;;;;6331005;28;19916;-77
2024/02/25 00:06:32;;;;;;;;;;;;;;;;;;6349566;28;20002;-77
2024/02/25 00:09:32;;;;;;;;;;;;;;;;;;6342104;28;20004;-76
2024/02/25 00:12:32;;;;;;;;;;;;;;;;;;6332368;28;19924;-77
2024/02/25 00:15:32;;;;;;;;;;;;;;;;;;6330699;28;19970;-77
2024/02/25 00:18:32;;;;;;;;;;;;;;;;;;6305550;28;19956;-77
2024/02/25 00:21:32;;;;;;;;;;;;;;;;;;6330844;28;19908;-76
2024/02/25 00:24:32;;;;;;;;;;;;;;;;;;6349643;28;19912;-77
2024/02/25 00:27:33;;;;;;;;;;;;;;;;;;6349408;28;19911;-78
2024/02/25 00:30:33;;;;;;;;;;;;;;;;;;6348219;28;19908;-78
2024/02/25 00:33:33;;;;;;;;;;;;;;;;;;6326290;28;19908;-77
2024/02/25 00:36:33;;;;;;;;;;;;;;;;;;6324528;28;19957;-77
2024/02/25 00:39:33;;;;;;;;;;;;;;;;;;6306351;28;20342;-77
2024/02/25 00:42:33;;;;;;;;;;;;;;;;;;6323697;28;20336;-77
2024/02/25 00:45:34;;;;;;;;;;;;;;;;;;6342860;28;19908;-76
2024/02/25 00:48:34;;;;;;;;;;;;;;;;;;6317355;28;19966;-77
2024/02/25 00:51:34;;;;;;;;;;;;;;;;;;6348911;28;19969;-77
2024/02/25 00:54:34;;;;;;;;;;;;;;;;;;6338707;28;19919;-77
2024/02/25 00:57:39;;;;;;;;;;;;;;;;;;6324050;28;19912;-77
2024/02/25 01:00:39;;;;;;;;;;;;;;;;;;6322305;28;19920;-77
2024/02/25 01:03:39;;;;;;;;;;;;;;;;;;6323745;28;19919;-77
2024/02/25 01:06:39;;;;;;;;;;;;;;;;;;6340131;28;19915;-77
2024/02/25 01:09:39;;;;;;;;;;;;;;;;;;6348807;28;19922;-78
2024/02/25 01:12:39;;;;;;;;;;;;;;;;;;6331030;27;21033;-80
2024/02/25 01:15:39;;;;;;;;;;;;;;;;;;6372567;27;20252;-80
2024/02/25 01:18:40;;;;;;;;;;;;;;;;;;6349998;28;19997;-80
2024/02/25 01:21:40;;;;;;;;;;;;;;;;;;6346230;28;19919;-80
2024/02/25 01:24:42;;;;;;;;;;;;;;;;;;6367877;27;21623;-80
2024/02/25 01:27:44;;;;;;;;;;;;;;;;;;6360461;27;19911;-80
2024/02/25 01:30:47;;;;;;;;;;;;;;;;;;6347202;28;19908;-79
2024/02/25 01:33:48;;;;;;;;;;;;;;;;;;6348297;28;20356;-80
2024/02/25 01:36:48;;;;;;;;;;;;;;;;;;6347296;28;19968;-80
2024/02/25 01:39:49;;;;;;;;;;;;;;;;;;6355508;27;19927;-80
2024/02/25 01:42:49;;;;;;;;;;;;;;;;;;6348685;28;19919;-80
2024/02/25 01:45:49;;;;;;;;;;;;;;;;;;6357024;28;19919;-80
2024/02/25 01:48:51;;;;;;;;;;;;;;;;;;6347946;28;19907;-80
2024/02/25 01:51:51;;;;;;;;;;;;;;;;;;6356885;28;19911;-80
2024/02/25 01:54:51;;;;;;;;;;;;;;;;;;6372320;28;19907;-80
2024/02/25 01:57:51;;;;;;;;;;;;;;;;;;6370985;28;19915;-80
2024/02/25 02:00:51;;;;;;;;;;;;;;;;;;6372824;28;19916;-79
2024/02/25 02:03:51;;;;;;;;;;;;;;;;;;6372978;28;19912;-80
2024/02/25 02:06:51;;;;;;;;;;;;;;;;;;6373123;28;19907;-79
2024/02/25 02:09:52;;;;;;;;;;;;;;;;;;6361140;28;19926;-80
2024/02/25 02:12:52;;;;;;;;;;;;;;;;;;6357919;27;19923;-80
2024/02/25 02:15:52;;;;;;;;;;;;;;;;;;6354451;27;20336;-79
2024/02/25 02:18:52;;;;;;;;;;;;;;;;;;6352798;28;20347;-79
2024/02/25 02:21:53;;;;;;;;;;;;;;;;;;6352507;28;19916;-78
2024/02/25 02:24:53;;;;;;;;;;;;;;;;;;6352520;28;19908;-77
2024/02/25 02:27:53;;;;;;;;;;;;;;;;;;6375146;27;20011;-77
2024/02/25 02:30:53;;;;;;;;;;;;;;;;;;6371547;27;19942;-77
2024/02/25 02:33:53;;;;;;;;;;;;;;;;;;6352950;28;19998;-77
2024/02/25 02:36:53;;;;;;;;;;;;;;;;;;6352935;28;20015;-77
2024/02/25 02:39:53;;;;;;;;;;;;;;;;;;6351691;28;19919;-77
2024/02/25 02:42:55;;;;;;;;;;;;;;;;;;6367833;27;19919;-77
2024/02/25 02:45:56;;;;;;;;;;;;;;;;;;6376852;27;20013;-77
2024/02/25 02:48:56;;;;;;;;;;;;;;;;;;6362793;27;19964;-77
2024/02/25 02:51:59;;;;;;;;;;;;;;;;;;6364734;27;19916;-77
2024/02/25 02:54:59;;;;;;;;;;;;;;;;;;6377781;27;19920;-77
2024/02/25 02:57:59;;;;;;;;;;;;;;;;;;6376636;27;19920;-77
2024/02/25 03:00:59;;;;;;;;;;;;;;;;;;6376573;27;19915;-77
2024/02/25 03:03:59;;;;;;;;;;;;;;;;;;6376193;27;19911;-77
2024/02/25 03:07:00;;;;;;;;;;;;;;;;;;6355994;27;20352;-77
2024/02/25 03:10:00;;;;;;;;;;;;;;;;;;6366668;27;19915;-77
2024/02/25 03:13:00;;;;;;;;;;;;;;;;;;6364166;27;20312;-77
2024/02/25 03:16:00;;;;;;;;;;;;;;;;;;6332402;28;20003;-77
2024/02/25 03:19:00;;;;;;;;;;;;;;;;;;6348285;28;20325;-77
2024/02/25 03:22:00;;;;;;;;;;;;;;;;;;6328349;28;20331;-77
2024/02/25 03:25:02;;;;;;;;;;;;;;;;;;6317037;28;19919;-77
2024/02/25 03:28:02;;;;;;;;;;;;;;;;;;6333095;28;20019;-77
2024/02/25 03:31:02;;;;;;;;;;;;;;;;;;6316331;28;20383;-79
2024/02/25 03:34:03;;;;;;;;;;;;;;;;;;6325433;28;20395;-80
2024/02/25 03:37:03;;;;;;;;;;;;;;;;;;6307091;28;20348;-80
2024/02/25 03:40:03;;;;;;;;;;;;;;;;;;6320698;28;20375;-79
2024/02/25 03:43:03;;;;;;;;;;;;;;;;;;6350021;28;19911;-79
2024/02/25 03:46:03;;;;;;;;;;;;;;;;;;6349935;28;19912;-79
2024/02/25 03:49:03;;;;;;;;;;;;;;;;;;6350767;28;19912;-79
2024/02/25 03:52:03;;;;;;;;;;;;;;;;;;6350244;28;19908;-79
2024/02/25 03:55:04;;;;;;;;;;;;;;;;;;6348810;28;19907;-80
2024/02/25 03:58:04;;;;;;;;;;;;;;;;;;6322338;28;19919;-79
2024/02/25 04:01:04;;;;;;;;;;;;;;;;;;6349624;28;19920;-79
2024/02/25 04:04:04;;;;;;;;;;;;;;;;;;6345364;28;19923;-79
2024/02/25 04:07:04;;;;;;;;;;;;;;;;;;6330679;28;19912;-79
2024/02/25 04:10:04;;;;;;;;;;;;;;;;;;6341600;28;19912;-80
2024/02/25 04:13:05;;;;;;;;;;;;;;;;;;6341417;28;20342;-79
2024/02/25 04:16:05;;;;;;;;;;;;;;;;;;6305646;28;20405;-79
2024/02/25 04:19:05;;;;;;;;;;;;;;;;;;6324961;28;20310;-79
2024/02/25 04:22:05;;;;;;;;;;;;;;;;;;6349729;28;20261;-79
2024/02/25 04:25:05;;;;;;;;;;;;;;;;;;6339093;28;20007;-79
2024/02/25 04:28:05;;;;;;;;;;;;;;;;;;6325334;28;19966;-79
2024/02/25 04:31:05;;;;;;;;;;;;;;;;;;6341236;28;20363;-79
2024/02/25 04:34:06;;;;;;;;;;;;;;;;;;6351912;28;19907;-79
2024/02/25 04:37:06;;;;;;;;;;;;;;;;;;6331731;28;19912;-79
2024/02/25 04:40:06;;;;;;;;;;;;;;;;;;6328138;28;19912;-79
2024/02/25 04:43:06;;;;;;;;;;;;;;;;;;6314939;28;19915;-77
2024/02/25 04:46:06;;;;;;;;;;;;;;;;;;6348723;28;19916;-77
2024/02/25 04:49:08;;;;;;;;;;;;;;;;;;6348774;28;19915;-75
2024/02/25 04:52:08;;;;;;;;;;;;;;;;;;6331418;28;19912;-77
2024/02/25 04:55:09;;;;;;;;;;;;;;;;;;6326579;28;19958;-77
2024/02/25 04:58:09;;;;;;;;;;;;;;;;;;6304313;28;19920;-77
2024/02/25 05:01:09;;;;;;;;;;;;;;;;;;6333913;28;19924;-76
2024/02/25 05:04:09;;;;;;;;;;;;;;;;;;6323571;28;19919;-77
2024/02/25 05:07:09;;;;;;;;;;;;;;;;;;6306481;28;19916;-75
2024/02/25 05:10:09;;;;;;;;;;;;;;;;;;6312636;28;19999;-77
2024/02/25 05:13:09;;;;;;;;;;;;;;;;;;6351691;27;19935;-77
2024/02/25 05:16:10;;;;;;;;;;;;;;;;;;6347686;28;19969;-77
2024/02/25 05:19:10;;;;;;;;;;;;;;;;;;6348636;28;19957;-77
2024/02/25 05:22:10;;;;;;;;;;;;;;;;;;6347746;28;19915;-76
2024/02/25 05:25:10;;;;;;;;;;;;;;;;;;6350092;28;19908;-77
2024/02/25 05:28:10;;;;;;;;;;;;;;;;;;6347790;28;19911;-77
2024/02/25 05:31:10;;;;;;;;;;;;;;;;;;6348176;28;19908;-77
2024/02/25 05:34:10;;;;;;;;;;;;;;;;;;6348318;28;19908;-77
2024/02/25 05:37:11;;;;;;;;;;;;;;;;;;6349405;27;19918;-77
2024/02/25 05:40:11;;;;;;;;;;;;;;;;;;6355022;28;20299;-77
2024/02/25 05:43:11;;;;;;;;;;;;;;;;;;6359881;28;20587;-76
2024/02/25 05:46:11;;;;;;;;;;;;;;;;;;6346773;28;19988;-77
2024/02/25 05:49:11;;;;;;;;;;;;;;;;;;6356563;27;19908;-77
2024/02/25 05:52:11;;;;;;;;;;;;;;;;;;6378468;27;19907;-79
2024/02/25 05:55:12;;;;;;;;;;;;;;;;;;6369317;27;19908;-79
2024/02/25 05:58:12;;;;;;;;;;;;;;;;;;6352214;28;19912;-79
2024/02/25 06:01:12;;;;;;;;;;;;;;;;;;6351884;27;19912;-79
2024/02/25 06:04:13;;;;;;;;;;;;;;;;;;6378101;27;20329;-79
2024/02/25 06:07:13;;;;;;;;;;;;;;;;;;6376512;27;20010;-79
2024/02/25 06:10:13;;;;;;;;;;;;;;;;;;6363109;27;19912;-79
2024/02/25 06:13:14;;;;;;;;;;;;;;;;;;6366817;27;19962;-78
2024/02/25 06:16:14;;;;;;;;;;;;;;;;;;6353772;28;19973;-79
2024/02/25 06:19:14;;;;;;;;;;;;;;;;;;6361264;27;20336;-78
2024/02/25 06:22:14;;;;;;;;;;;;;;;;;;6379233;27;20291;-78
2024/02/25 06:25:14;;;;;;;;;;;;;;;;;;6378153;27;20280;-78
2024/02/25 06:28:14;;;;;;;;;;;;;;;;;;6375302;27;19931;-78
2024/02/25 06:31:14;;;;;;;;;;;;;;;;;;6350910;28;19908;-78
2024/02/25 06:34:14;;;;;;;;;;;;;;;;;;6362516;27;20317;-78
2024/02/25 06:37:15;;;;;;;;;;;;;;;;;;6375797;27;20313;-79
2024/02/25 06:40:15;;;;;;;;;;;;;;;;;;6377826;27;19934;-79
2024/02/25 06:43:15;;;;;;;;;;;;;;;;;;6376911;27;20003;-79
2024/02/25 06:46:15;;;;;;;;;;;;;;;;;;6366276;27;19908;-78
2024/02/25 06:49:15;;;;;;;;;;;;;;;;;;6352083;28;19919;-79
2024/02/25 06:52:15;;;;;;;;;;;;;;;;;;6368441;27;19912;-79
2024/02/25 06:55:15;;;;;;;;;;;;;;;;;;6370861;27;19911;-79
2024/02/25 06:58:16;;;;;;;;;;;;;;;;;;6351283;27;19965;-78
2024/02/25 07:01:16;;;;;;;;;;;;;;;;;;6351041;28;19977;-79
2024/02/25 07:04:16;;;;;;;;;;;;;;;;;;6369836;27;19911;-78
2024/02/25 07:07:16;;;;;;;;;;;;;;;;;;6368266;27;19911;-79
2024/02/25 07:10:16;;;;;;;;;;;;;;;;;;6349821;28;20359;-78
2024/02/25 07:13:17;;;;;;;;;;;;;;;;;;6346320;28;20392;-78
2024/02/25 07:16:17;;;;;;;;;;;;;;;;;;6329229;28;20416;-78
2024/02/25 07:19:17;;;;;;;;;;;;;;;;;;6341697;28;20380;-80
2024/02/25 07:22:17;;;;;;;;;;;;;;;;;;6350321;28;20006;-79
2024/02/25 07:25:17;;;;;;;;;;;;;;;;;;6334696;28;19931;-79
2024/02/25 07:28:17;;;;;;;;;;;;;;;;;;6342693;28;20288;-79
2024/02/25 07:31:17;;;;;;;;;;;;;;;;;;6350230;28;20276;-79
2024/02/25 07:34:18;;;;;;;;;;;;;;;;;;6330931;28;19908;-79
2024/02/25 07:37:18;;;;;;;;;;;;;;;;;;6334485;28;19914;-80
2024/02/25 07:40:18;;;;;;;;;;;;;;;;;;6350535;28;19922;-79
2024/02/25 07:43:18;;;;;;;;;;;;;;;;;;6345062;28;19912;-79
2024/02/25 07:46:20;;;;;;;;;;;;;;;;;;6349849;28;19918;-80
2024/02/25 07:49:20;;;;;;;;;;;;;;;;;;6341280;28;19908;-80
2024/02/25 07:52:20;;;;;;;;;;;;;;;;;;6324600;28;19962;-80
2024/02/25 07:55:21;;;;;;;;;;;;;;;;;;6342726;28;20315;-79
2024/02/25 07:58:21;;;;;;;;;;;;;;;;;;6347079;28;20368;-80
2024/02/25 08:01:21;;;;;;;;;;;;;;;;;;6322627;28;20025;-80
2024/02/25 08:04:21;;;;;;;;;;;;;;;;;;6322368;28;19909;-80
2024/02/25 08:07:21;;;;;;;;;;;;;;;;;;6349577;28;19912;-80
2024/02/25 08:10:22;;;;;;;;;;;;;;;;;;6334140;28;19908;-80
2024/02/25 08:13:22;;;;;;;;;;;;;;;;;;6342603;28;19919;-79
2024/02/25 08:16:22;;;;;;;;;;;;;;;;;;6349527;28;19947;-80
2024/02/25 08:19:22;;;;;;;;;;;;;;;;;;6349858;28;19986;-80
2024/02/25 08:22:23;;;;;;;;;;;;;;;;;;6345850;27;19938;-79
2024/02/25 08:25:23;;;;;;;;;;;;;;;;;;6333036;28;19956;-80
2024/02/25 08:28:25;;;;;;;;;;;;;;;;;;6359412;27;19919;-80
2024/02/25 08:31:25;;;;;;;;;;;;;;;;;;6353986;27;19916;-80
2024/02/25 08:34:25;;;;;;;;;;;;;;;;;;6358095;27;20325;-80
2024/02/25 08:37:26;;;;;;;;;;;;;;;;;;6353740;27;20284;-79
2024/02/25 08:40:27;;;;;;;;;;;;;;;;;;6374759;27;19912;-80
2024/02/25 08:43:27;;;;;;;;;;;;;;;;;;6372317;27;19924;-80
2024/02/25 08:46:27;;;;;;;;;;;;;;;;;;6352631;27;19919;-80
2024/02/25 08:49:27;;;;;;;;;;;;;;;;;;6365080;27;19960;-80
2024/02/25 08:52:27;;;;;;;;;;;;;;;;;;6361005;27;20032;-80
2024/02/25 08:55:28;;;;;;;;;;;;;;;;;;6349441;28;20383;-80
2024/02/25 08:58:28;;;;;;;;;;;;;;;;;;6348025;28;19955;-80
2024/02/25 09:01:28;;;;;;;;;;;;;;;;;;6349915;27;20408;-80
2024/02/25 09:04:28;;;;;;;;;;;;;;;;;;6373113;27;19912;-80
2024/02/25 09:07:29;;;;;;;;;;;;;;;;;;6371521;27;19922;-80
2024/02/25 09:10:31;;;;;;;;;;;;;;;;;;6374613;27;20325;-80
2024/02/25 09:13:31;;;;;;;;;;;;;;;;;;6349178;27;19927;-80
2024/02/25 09:16:31;;;;;;;;;;;;;;;;;;6379771;27;19923;-80
2024/02/25 09:19:31;;;;;;;;;;;;;;;;;;6371523;27;19920;-80
2024/02/25 09:22:31;;;;;;;;;;;;;;;;;;6388492;27;19915;-80
2024/02/25 09:25:35;;;;;;;;;;;;;;;;;;6376271;27;19908;-80
2024/02/25 09:28:36;;;;;;;;;;;;;;;;;;6375527;27;19915;-80
2024/02/25 09:31:36;;;;;;;;;;;;;;;;;;6374993;27;19943;-80
2024/02/25 09:34:36;;;;;;;;;;;;;;;;;;6390814;27;19912;-80
2024/02/25 09:37:36;;;;;;;;;;;;;;;;;;6393615;27;19907;-80
2024/02/25 09:40:36;;;;;;;;;;;;;;;;;;6357792;28;19963;-80
2024/02/25 09:43:36;;;;;;;;;;;;;;;;;;6386787;27;19917;-80
2024/02/25 09:46:37;;;;;;;;;;;;;;;;;;6354530;28;19907;-81
2024/02/25 09:49:37;;;;;;;;;;;;;;;;;;6381250;27;20259;-80
2024/02/25 09:52:37;;;;;;;;;;;;;;;;;;6397782;27;19957;-81
2024/02/25 09:55:37;;;;;;;;;;;;;;;;;;6385786;27;19964;-81
2024/02/25 09:58:37;;;;;;;;;;;;;;;;;;6395850;27;19947;-81
2024/02/25 10:01:37;;;;;;;;;;;;;;;;;;6372688;28;19994;-81
2024/02/25 10:04:38;;;;;;;;;;;;;;;;;;6395150;27;19999;-81
2024/02/25 10:07:38;;;;;;;;;;;;;;;;;;6393950;27;19915;-80
2024/02/25 10:10:41;;;;;;;;;;;;;;;;;;6389528;27;20055;-80
2024/02/25 10:13:51;;;;;;;;;;;;;;;;;;6385042;27;19963;-80
2024/02/25 10:16:51;;;;;;;;;;;;;;;;;;6350730;27;19912;-80
2024/02/25 10:19:52;;;;;;;;;;;;;;;;;;6379534;27;19915;-80
2024/02/25 10:22:52;;;;;;;;;;;;;;;;;;6372923;27;19960;-80
2024/02/25 10:25:52;;;;;;;;;;;;;;;;;;6394455;27;19911;-80
2024/02/25 10:28:52;;;;;;;;;;;;;;;;;;6394981;27;19954;-80
2024/02/25 10:31:53;;;;;;;;;;;;;;;;;;6395376;27;20006;-80
2024/02/25 10:34:53;;;;;;;;;;;;;;;;;;6387174;27;19933;-80
2024/02/25 10:37:54;;;;;;;;;;;;;;;;;;6377477;27;20006;-80
2024/02/25 10:40:54;;;;;;;;;;;;;;;;;;6392355;27;19940;-80
2024/02/25 10:43:54;;;;;;;;;;;;;;;;;;6401696;27;19911;-78
2024/02/25 10:46:54;;;;;;;;;;;;;;;;;;6399502;27;19911;-78
2024/02/25 10:49:55;;;;;;;;;;;;;;;;;;6378585;27;19940;-78
2024/02/25 10:52:55;;;;;;;;;;;;;;;;;;6400821;27;20014;-78
2024/02/25 10:55:55;;;;;;;;;;;;;;;;;;6396678;27;19912;-78
2024/02/25 10:58:56;;;;;;;;;;;;;;;;;;6395314;27;19922;-78
2024/02/25 11:01:57;;;;;;;;;;;;;;;;;;6368847;27;19956;-79
2024/02/25 11:04:58;;;;;;;;;;;;;;;;;;6377936;27;19919;-78
2024/02/25 11:07:58;;;;;;;;;;;;;;;;;;6402790;27;19911;-78
2024/02/25 11:10:58;;;;;;;;;;;;;;;;;;6403094;27;19911;-78
2024/02/25 11:14:00;;;;;;;;;;;;;;;;;;6364716;27;19919;-78
2024/02/25 11:17:00;;;;;;;;;;;;;;;;;;6347032;28;19953;-78
2024/02/25 11:20:00;;;;;;;;;;;;;;;;;;6325377;28;20463;-78
2024/02/25 11:23:00;;;;;;;;;;;;;;;;;;6325834;28;20289;-78
2024/02/25 11:26:00;;;;;;;;;;;;;;;;;;6325537;28;20383;-78
2024/02/25 11:29:01;;;;;;;;;;;;;;;;;;6344660;28;19915;-78
2024/02/25 11:32:01;;;;;;;;;;;;;;;;;;6330807;28;19912;-78
2024/02/25 11:35:01;;;;;;;;;;;;;;;;;;6331166;28;19916;-78
2024/02/25 11:38:01;;;;;;;;;;;;;;;;;;6350782;28;19921;-78
2024/02/25 11:41:01;;;;;;;;;;;;;;;;;;6350528;28;19916;-78
2024/02/25 11:44:03;;;;;;;;;;;;;;;;;;6330369;28;19912;-78
2024/02/25 11:47:03;;;;;;;;;;;;;;;;;;6335117;28;19920;-79
2024/02/25 11:50:03;;;;;;;;;;;;;;;;;;6344522;28;20052;-79
2024/02/25 11:53:03;;;;;;;;;;;;;;;;;;6342474;28;19915;-79
2024/02/25 11:56:03;;;;;;;;;;;;;;;;;;6324203;28;19916;-78
2024/02/25 11:59:03;;;;;;;;;;;;;;;;;;6324144;28;19916;-79
2024/02/25 12:02:04;;;;;;;;;;;;;;;;;;6328410;28;19937;-79
2024/02/25 12:05:04;;;;;;;;;;;;;;;;;;6346308;28;20023;-79
2024/02/25 12:08:04;;;;;;;;;;;;;;;;;;6350091;28;19912;-79
2024/02/25 12:11:05;;;;;;;;;;;;;;;;;;6326531;28;19908;-78
2024/02/25 12:14:05;;;;;;;;;;;;;;;;;;6332135;28;20283;-79
2024/02/25 12:17:05;;;;;;;;;;;;;;;;;;6323699;28;19931;-79
2024/02/25 12:20:05;;;;;;;;;;;;;;;;;;6336346;28;20260;-79
2024/02/25 12:23:05;;;;;;;;;;;;;;;;;;6349361;28;20366;-79
2024/02/25 12:26:08;;;;;;;;;;;;;;;;;;6346970;28;19954;-79
2024/02/25 12:29:08;;;;;;;;;;;;;;;;;;6348492;28;19914;-78
2024/02/25 12:32:09;;;;;;;;;;;;;;;;;;6346485;28;19908;-78
2024/02/25 12:35:09;;;;;;;;;;;;;;;;;;6323336;28;19977;-79
2024/02/25 12:38:11;;;;;;;;;;;;;;;;;;6323862;28;19981;-79
2024/02/25 12:41:11;;;;;;;;;;;;;;;;;;6324194;28;19912;-78
2024/02/25 12:44:11;;;;;;;;;;;;;;;;;;6338701;28;19920;-78
2024/02/25 12:47:11;;;;;;;;;;;;;;;;;;6348368;28;19919;-78
2024/02/25 12:50:12;;;;;;;;;;;;;;;;;;6345419;28;19911;-79
2024/02/25 12:53:12;;;;;;;;;;;;;;;;;;6347067;28;20327;-76
2024/02/25 12:56:13;;;;;;;;;;;;;;;;;;6321816;28;20363;-77
2024/02/25 12:59:13;;;;;;;;;;;;;;;;;;6347303;28;19970;-77
2024/02/25 13:02:13;;;;;;;;;;;;;;;;;;6330261;28;20011;-79
2024/02/25 13:05:13;;;;;;;;;;;;;;;;;;6326841;28;19912;-82
2024/02/25 13:08:13;;;;;;;;;;;;;;;;;;6348578;28;19914;-81
2024/02/25 13:11:15;;;;;;;;;;;;;;;;;;6346420;28;20014;-82
2024/02/25 13:14:15;;;;;;;;;;;;;;;;;;6360041;27;19930;-81
2024/02/25 13:17:15;;;;;;;;;;;;;;;;;;6372294;27;19912;-82
2024/02/25 13:20:15;;;;;;;;;;;;;;;;;;6358627;27;19916;-79
2024/02/25 13:23:15;;;;;;;;;;;;;;;;;;6348386;28;19915;-79
2024/02/25 13:26:15;;;;;;;;;;;;;;;;;;6347287;28;19994;-79
2024/02/25 13:29:16;;;;;;;;;;;;;;;;;;6373162;27;19908;-79
2024/02/25 13:32:17;;;;;;;;;;;;;;;;;;6372888;27;19943;-79
2024/02/25 13:35:17;;;;;;;;;;;;;;;;;;6367980;27;19998;-79
2024/02/25 13:38:17;;;;;;;;;;;;;;;;;;6370116;27;20360;-79
2024/02/25 13:41:17;;;;;;;;;;;;;;;;;;6348363;28;19912;-79
2024/02/25 13:44:17;;;;;;;;;;;;;;;;;;6369810;28;19915;-79
2024/02/25 13:47:17;;;;;;;;;;;;;;;;;;6353108;28;19911;-78
2024/02/25 13:50:17;;;;;;;;;;;;;;;;;;6347299;28;19907;-79
2024/02/25 13:53:19;;;;;;;;;;;;;;;;;;6353175;28;19911;-78
2024/02/25 13:56:19;;;;;;;;;;;;;;;;;;6354423;27;19961;-78
2024/02/25 13:59:20;;;;;;;;;;;;;;;;;;6347220;28;19916;-79
2024/02/25 14:02:21;;;;;;;;;;;;;;;;;;6346805;28;19911;-81
2024/02/25 14:05:21;;;;;;;;;;;;;;;;;;6347357;28;20006;-81
2024/02/25 14:08:22;;;;;;;;;;;;;;;;;;6358153;27;19908;-81
2024/02/25 14:11:22;;;;;;;;;;;;;;;;;;6375258;27;19911;-81
2024/02/25 14:14:22;;;;;;;;;;;;;;;;;;6368833;27;19998;-79
2024/02/25 14:17:22;;;;;;;;;;;;;;;;;;6356541;27;19915;-78
2024/02/25 14:20:23;;;;;;;;;;;;;;;;;;6352084;28;19918;-78
2024/02/25 14:23:24;;;;;;;;;;;;;;;;;;6352452;28;20292;-79
2024/02/25 14:26:24;;;;;;;;;;;;;;;;;;6370644;27;20272;-79
2024/02/25 14:29:25;;;;;;;;;;;;;;;;;;6370679;27;19964;-79
2024/02/25 14:32:25;;;;;;;;;;;;;;;;;;6350624;28;20284;-79
2024/02/25 14:35:25;;;;;;;;;;;;;;;;;;6347836;27;20355;-79
2024/02/25 14:38:25;;;;;;;;;;;;;;;;;;6350687;28;19955;-78
2024/02/25 14:41:25;;;;;;;;;;;;;;;;;;6354218;27;20487;-81
2024/02/25 14:44:26;;;;;;;;;;;;;;;;;;6348588;27;20380;-77
2024/02/25 14:47:26;;;;;;;;;;;;;;;;;;6355651;27;19911;-78
2024/02/25 14:50:26;;;;;;;;;;;;;;;;;;6349320;27;19912;-78
2024/02/25 14:53:27;;;;;;;;;;;;;;;;;;6350598;27;19911;-78
2024/02/25 14:56:27;;;;;;;;;;;;;;;;;;6360644;27;19919;-79
2024/02/25 14:59:27;;;;;;;;;;;;;;;;;;6351334;27;20280;-79
2024/02/25 15:02:28;;;;;;;;;;;;;;;;;;6349101;28;20011;-81
2024/02/25 15:05:28;;;;;;;;;;;;;;;;;;6349527;27;20376;-80
2024/02/25 15:08:28;;;;;;;;;;;;;;;;;;6352477;27;19918;-80
2024/02/25 15:11:28;;;;;;;;;;;;;;;;;;6349753;27;19912;-80
2024/02/25 15:14:28;;;;;;;;;;;;;;;;;;6325883;27;19973;-79
2024/02/25 15:17:30;;;;;;;;;;;;;;;;;;6323216;28;19945;-80
2024/02/25 15:20:30;;;;;;;;;;;;;;;;;;6327031;28;20371;-80
2024/02/25 15:23:30;;;;;;;;;;;;;;;;;;6325245;28;19926;-76
2024/02/25 15:26:31;;;;;;;;;;;;;;;;;;6325888;28;19918;-79
2024/02/25 15:29:31;;;;;;;;;;;;;;;;;;6319707;28;19916;-76
2024/02/25 15:32:31;;;;;;;;;;;;;;;;;;6324474;28;19947;-77
2024/02/25 15:35:31;;;;;;;;;;;;;;;;;;6330012;28;20359;-79
2024/02/25 15:38:32;;;;;;;;;;;;;;;;;;6325428;28;20360;-79
2024/02/25 15:41:33;;;;;;;;;;;;;;;;;;6326737;28;19955;-78
2024/02/25 15:44:34;;;;;;;;;;;;;;;;;;6328267;28;20288;-78
2024/02/25 15:47:34;;;;;;;;;;;;;;;;;;6309469;28;19923;-80
2024/02/25 15:50:34;;;;;;;;;;;;;;;;;;6323896;28;19920;-79
2024/02/25 15:53:34;;;;;;;;;;;;;;;;;;6328136;28;19957;-80
2024/02/25 15:56:34;;;;;;;;;;;;;;;;;;6326603;28;19961;-80
2024/02/25 15:59:34;;;;;;;;;;;;;;;;;;6325580;28;19924;-79
2024/02/25 16:02:35;;;;;;;;;;;;;;;;;;6321243;28;19916;-81
2024/02/25 16:05:35;;;;;;;;;;;;;;;;;;6325300;28;19912;-80
2024/02/25 16:08:35;;;;;;;;;;;;;;;;;;6325855;28;20318;-81
2024/02/25 16:11:35;;;;;;;;;;;;;;;;;;6344635;28;20291;-79
2024/02/25 16:14:38;;;;;;;;;;;;;;;;;;6321097;28;19919;-79
2024/02/25 16:17:38;;;;;;;;;;;;;;;;;;5955820;28;9999666;-79
2024/02/25 16:20:38;;;;;;;;;;;;;;;;;;6309518;28;19923;-79
2024/02/25 16:23:41;;;;;;;;;;;;;;;;;;6330078;28;20002;-79
2024/02/25 16:26:44;;;;;;;;;;;;;;;;;;6325120;28;19916;-81
2024/02/25 16:29:44;;;;;;;;;;;;;;;;;;6319780;28;20390;-82
2024/02/25 16:32:44;;;;;;;;;;;;;;;;;;6322456;28;19912;-85
2024/02/25 16:35:45;;;;;;;;;;;;;;;;;;6315146;28;19920;-83
2024/02/25 16:38:45;;;;;;;;;;;;;;;;;;6329692;28;19912;-82
2024/02/25 16:41:45;;;;;;;;;;;;;;;;;;6326120;28;19917;-85
2024/02/25 16:44:47;;;;;;;;;;;;;;;;;;6320832;28;19924;-89
2024/02/25 16:47:47;;;;;;;;;;;;;;;;;;6326852;28;19916;-89
2024/02/25 16:50:47;;;;;;;;;;;;;;;;;;6331421;28;19934;-89
2024/02/25 16:53:48;;;;;;;;;;;;;;;;;;6325087;28;19912;-89
2024/02/25 16:56:49;;;;;;;;;;;;;;;;;;6322944;28;19912;-92
2024/02/25 16:59:49;;;;;;;;;;;;;;;;;;6330349;28;19916;-89
2024/02/25 17:02:49;;;;;;;;;;;;;;;;;;6328606;28;19916;-90
2024/02/25 17:05:49;;;;;;;;;;;;;;;;;;6309495;28;19916;-90
2024/02/25 17:08:50;;;;;;;;;;;;;;;;;;6323974;28;19916;-89
2024/02/25 17:11:50;;;;;;;;;;;;;;;;;;6323679;28;19993;-86
2024/02/25 17:14:50;;;;;;;;;;;;;;;;;;6339551;27;20279;-87
2024/02/25 17:17:50;;;;;;;;;;;;;;;;;;6346052;28;20080;-87
2024/02/25 17:20:50;;;;;;;;;;;;;;;;;;6344568;28;20435;-87
2024/02/25 17:23:51;;;;;;;;;;;;;;;;;;6349977;27;19916;-88
2024/02/25 17:26:53;;;;;;;;;;;;;;;;;;6350271;27;19916;-82
2024/02/25 17:29:53;;;;;;;;;;;;;;;;;;6346683;27;20288;-79
2024/02/25 17:32:53;;;;;;;;;;;;;;;;;;6347483;27;19915;-80
2024/02/25 17:35:55;;;;;;;;;;;;;;;;;;6346424;28;19943;-85
2024/02/25 17:38:55;;;;;;;;;;;;;;;;;;6350943;27;19912;-89
2024/02/25 17:41:55;;;;;;;;;;;;;;;;;;6344350;28;19969;-82
2024/02/25 17:44:55;;;;;;;;;;;;;;;;;;6344689;28;19919;-79
2024/02/25 17:47:55;;;;;;;;;;;;;;;;;;6357322;28;19959;-80
2024/02/25 17:50:55;;;;;;;;;;;;;;;;;;6357869;28;19919;-79
2024/02/25 17:53:58;;;;;;;;;;;;;;;;;;6346899;28;19918;-79
2024/02/25 17:56:58;;;;;;;;;;;;;;;;;;6342947;28;20291;-78
2024/02/25 17:59:58;;;;;;;;;;;;;;;;;;6351647;28;19916;-80
2024/02/25 18:02:58;;;;;;;;;;;;;;;;;;6347723;28;19939;-83
2024/02/25 18:05:58;;;;;;;;;;;;;;;;;;6346530;28;19915;-82
2024/02/25 18:08:58;;;;;;;;;;;;;;;;;;6348840;28;20402;-82
2024/02/25 18:11:59;;;;;;;;;;;;;;;;;;6359507;28;19912;-82
2024/02/25 18:14:59;;;;;;;;;;;;;;;;;;6349668;28;19920;-82
2024/02/25 18:17:59;;;;;;;;;;;;;;;;;;6359933;28;19911;-82
2024/02/25 18:20:59;;;;;;;;;;;;;;;;;;6349665;28;19924;-82
2024/02/25 18:23:59;;;;;;;;;;;;;;;;;;6352027;28;20277;-84
2024/02/25 18:26:59;;;;;;;;;;;;;;;;;;6344492;28;19919;-82
2024/02/25 18:30:00;;;;;;;;;;;;;;;;;;6349593;28;19968;-80
2024/02/25 18:33:00;;;;;;;;;;;;;;;;;;6346877;28;19923;-78
2024/02/25 18:36:00;;;;;;;;;;;;;;;;;;6349161;28;19916;-82
2024/02/25 18:39:00;;;;;;;;;;;;;;;;;;6350226;28;20356;-78
2024/02/25 18:42:01;;;;;;;;;;;;;;;;;;6353967;28;19999;-81
2024/02/25 18:45:01;;;;;;;;;;;;;;;;;;6342677;28;19923;-78
2024/02/25 18:48:03;;;;;;;;;;;;;;;;;;6353870;28;19919;-79
2024/02/25 18:51:04;;;;;;;;;;;;;;;;;;6342543;28;19950;-79
2024/02/25 18:54:05;;;;;;;;;;;;;;;;;;6342307;28;19916;-85
2024/02/25 18:57:05;;;;;;;;;;;;;;;;;;6352597;27;19915;-85
2024/02/25 19:00:08;;;;;;;;;;;;;;;;;;6349695;27;19923;-85
2024/02/25 19:03:08;;;;;;;;;;;;;;;;;;6350356;27;19920;-85
2024/02/25 19:06:09;;;;;;;;;;;;;;;;;;6345719;27;19916;-84
2024/02/25 19:09:09;;;;;;;;;;;;;;;;;;6346139;27;19922;-85
2024/02/25 19:12:10;;;;;;;;;;;;;;;;;;6348199;27;19920;-85
2024/02/25 19:15:10;;;;;;;;;;;;;;;;;;6322451;27;20016;-84
2024/02/25 19:18:10;;;;;;;;;;;;;;;;;;6311331;28;19951;-85
2024/02/25 19:21:11;;;;;;;;;;;;;;;;;;6323316;28;20071;-85
2024/02/25 19:24:11;;;;;;;;;;;;;;;;;;6321172;28;19973;-85
2024/02/25 19:27:11;;;;;;;;;;;;;;;;;;6329965;28;19959;-85
2024/02/25 19:30:11;;;;;;;;;;;;;;;;;;6303898;28;20039;-84
2024/02/25 19:33:14;;;;;;;;;;;;;;;;;;6321987;28;19915;-85
2024/02/25 19:36:14;;;;;;;;;;;;;;;;;;6320903;28;20299;-85
2024/02/25 19:39:14;;;;;;;;;;;;;;;;;;6325978;28;19916;-84
2024/02/25 19:42:14;;;;;;;;;;;;;;;;;;6325346;28;19919;-85
2024/02/25 19:45:14;;;;;;;;;;;;;;;;;;6303876;28;20363;-85
2024/02/25 19:48:16;;;;;;;;;;;;;;;;;;6320708;28;20486;-85
2024/02/25 19:51:16;;;;;;;;;;;;;;;;;;6321262;28;19923;-84
2024/02/25 19:54:16;;;;;;;;;;;;;;;;;;6320823;28;19916;-85
2024/02/25 19:57:17;;;;;;;;;;;;;;;;;;6306715;28;19923;-86
2024/02/25 20:00:18;;;;;;;;;;;;;;;;;;6318995;28;20361;-85
2024/02/25 20:03:18;;;;;;;;;;;;;;;;;;6320099;28;20405;-85
2024/02/25 20:06:19;;;;;;;;;;;;;;;;;;6301206;28;19916;-84
2024/02/25 20:09:19;;;;;;;;;;;;;;;;;;6329652;28;19911;-86
2024/02/25 20:12:19;;;;;;;;;;;;;;;;;;6307258;28;19967;-85
2024/02/25 20:15:19;;;;;;;;;;;;;;;;;;6321650;28;19956;-85
2024/02/25 20:18:19;;;;;;;;;;;;;;;;;;6306774;28;19922;-85
2024/02/25 20:21:19;;;;;;;;;;;;;;;;;;6326829;28;20440;-85
2024/02/25 20:24:19;;;;;;;;;;;;;;;;;;6321657;28;20426;-85
2024/02/25 20:27:20;;;;;;;;;;;;;;;;;;6325152;28;19922;-85
2024/02/25 20:30:20;;;;;;;;;;;;;;;;;;6320260;28;19923;-84